Time;durP1;ratioP1;P1;durP2;ratioP2;P2;SDS_P1;SDS_P2;PMS_P1;PMS_P2;Temp;Humidity;BMP_temperature;BMP_pressure;BME280_temperature;BME280_humidity;BME280_pressure;Samples;Min_cycle;Max_cycle;Signal;HPM_P1;HPM_P2
2023/08/22 00:00:27;;;;;;;22.95;17.75;;;;;;;19.51;98.91;101963.31;5073582;28;20104;-67
2023/08/22 00:02:52;;;;;;;22.52;17.60;;;;;;;19.52;99.34;101952.94;5080135;28;20031;-68
2023/08/22 00:05:18;;;;;;;24.02;17.88;;;;;;;19.49;100.00;101949.66;5093173;28;20047;-68
2023/08/22 00:07:43;;;;;;;23.33;18.13;;;;;;;19.46;100.00;101941.91;5092602;28;20337;-68
2023/08/22 00:10:09;;;;;;;23.83;18.08;;;;;;;19.39;100.00;101952.84;5083397;28;20028;-68
2023/08/22 00:12:35;;;;;;;22.92;17.95;;;;;;;19.33;100.00;101949.41;5077198;28;20111;-68
2023/08/22 00:15:00;;;;;;;24.00;17.38;;;;;;;19.29;100.00;101945.66;5076852;28;20048;-69
2023/08/22 00:17:26;;;;;;;21.95;16.88;;;;;;;19.30;100.00;101940.84;5073810;28;20029;-68
2023/08/22 00:19:51;;;;;;;23.17;17.85;;;;;;;19.31;100.00;101939.69;5076411;28;20040;-68
2023/08/22 00:22:17;;;;;;;22.80;17.75;;;;;;;19.31;100.00;101945.31;5091683;28;20052;-68
2023/08/22 00:24:42;;;;;;;23.00;17.33;;;;;;;19.32;100.00;101939.34;5080094;28;20060;-68
2023/08/22 00:27:08;;;;;;;22.15;17.77;;;;;;;19.32;100.00;101950.56;5077812;28;20212;-69
2023/08/22 00:29:33;;;;;;;24.17;18.00;;;;;;;19.36;100.00;101950.75;5075947;28;20093;-68
2023/08/22 00:31:58;;;;;;;23.52;18.40;;;;;;;19.33;100.00;101951.41;5080996;28;20232;-68
2023/08/22 00:34:24;;;;;;;23.55;18.00;;;;;;;19.31;100.00;101942.50;5088575;28;20045;-68
2023/08/22 00:36:50;;;;;;;22.77;17.63;;;;;;;19.29;100.00;101951.28;5086053;28;20072;-68
2023/08/22 00:39:15;;;;;;;24.00;17.95;;;;;;;19.27;100.00;101941.56;5072293;28;20040;-68
2023/08/22 00:41:40;;;;;;;23.77;18.08;;;;;;;19.23;100.00;101935.78;5079250;28;20012;-68
2023/08/22 00:44:07;;;;;;;22.90;17.80;;;;;;;19.18;100.00;101925.56;5079759;28;20114;-68
2023/08/22 00:46:32;;;;;;;24.00;19.00;;;;;;;19.17;100.00;101931.53;5089581;28;20035;-68
2023/08/22 00:48:58;;;;;;;24.42;18.67;;;;;;;19.17;100.00;101934.34;5075419;28;20032;-68
2023/08/22 00:51:23;;;;;;;24.20;18.20;;;;;;;19.14;100.00;101930.22;5089142;28;20116;-68
2023/08/22 00:53:49;;;;;;;24.35;17.92;;;;;;;19.15;100.00;101929.06;5082240;28;20021;-67
2023/08/22 00:56:15;;;;;;;24.70;18.13;;;;;;;19.15;100.00;101922.63;5081174;28;20025;-67
2023/08/22 00:58:40;;;;;;;25.50;18.38;;;;;;;19.12;100.00;101924.13;5086010;28;20057;-68
2023/08/22 01:01:06;;;;;;;24.60;17.90;;;;;;;19.10;100.00;101918.03;5090303;28;20438;-68
2023/08/22 01:03:31;;;;;;;22.17;18.08;;;;;;;19.11;100.00;101916.88;5080879;28;20037;-68
2023/08/22 01:06:06;;;;;;;25.23;19.15;;;;;;;19.03;100.00;101917.75;5078782;28;20083;-68
2023/08/22 01:08:34;;;;;;;24.23;18.38;;;;;;;18.94;100.00;101919.78;5075698;28;20032;-68
2023/08/22 01:11:09;;;;;;;25.10;18.90;;;;;;;18.90;100.00;101915.97;5096310;28;20438;-67
2023/08/22 01:13:38;;;;;;;22.92;18.38;;;;;;;18.86;100.00;101913.84;5076683;28;20030;-68
2023/08/22 01:16:04;;;;;;;23.13;18.15;;;;;;;18.85;100.00;101916.97;5071650;28;20127;-67
2023/08/22 01:18:30;;;;;;;26.20;18.40;;;;;;;18.81;100.00;101914.03;5077353;28;20103;-67
2023/08/22 01:21:04;;;;;;;24.10;19.17;;;;;;;18.76;100.00;101910.59;5090936;28;20067;-68
2023/08/22 01:23:30;;;;;;;24.85;18.48;;;;;;;18.79;100.00;101918.34;5089223;28;20056;-67
2023/08/22 01:25:56;;;;;;;24.30;18.77;;;;;;;18.77;100.00;101918.69;5086505;28;20067;-67
2023/08/22 01:28:28;;;;;;;24.95;18.98;;;;;;;18.75;100.00;101918.19;5087237;28;20031;-68
2023/08/22 01:31:17;;;;;;;23.83;19.00;;;;;;;18.76;100.00;101922.63;5077403;28;20105;-68
2023/08/22 01:33:52;;;;;;;24.73;18.15;;;;;;;18.67;100.00;101914.25;5071672;28;20058;-68
2023/08/22 01:36:21;;;;;;;24.98;17.88;;;;;;;18.65;100.00;101908.19;5082537;28;20052;-68
2023/08/22 01:38:49;;;;;;;23.52;18.35;;;;;;;18.62;100.00;101910.81;5071409;28;20085;-68
2023/08/22 01:41:15;;;;;;;22.67;17.55;;;;;;;18.59;100.00;101895.50;5071259;28;20040;-68
2023/08/22 01:43:42;;;;;;;25.38;19.08;;;;;;;18.51;100.00;101900.00;5079517;28;20039;-67
2023/08/22 01:46:08;;;;;;;23.33;18.08;;;;;;;18.57;100.00;101899.78;5071050;28;20052;-67
2023/08/22 01:48:34;;;;;;;25.77;19.17;;;;;;;18.55;100.00;101900.97;5086341;28;20399;-67
2023/08/22 01:50:59;;;;;;;26.15;18.92;;;;;;;18.55;100.00;101906.56;5089091;28;20024;-68
2023/08/22 01:53:25;;;;;;;24.70;19.17;;;;;;;18.54;100.00;101895.69;5078474;28;20633;-69
2023/08/22 01:55:50;;;;;;;24.92;18.60;;;;;;;18.55;100.00;101900.97;5091250;28;20024;-68
2023/08/22 01:58:15;;;;;;;23.05;18.58;;;;;;;18.52;100.00;101903.59;5079114;28;20039;-68
2023/08/22 02:00:41;;;;;;;23.65;18.45;;;;;;;18.54;100.00;101895.69;5093485;28;20036;-68
2023/08/22 02:03:06;;;;;;;23.10;18.13;;;;;;;18.55;100.00;101894.53;5084403;28;20450;-68
2023/08/22 02:05:32;;;;;;;24.30;18.83;;;;;;;18.54;100.00;101896.50;5090569;28;20408;-68
2023/08/22 02:08:02;;;;;;;23.65;17.90;;;;;;;18.51;100.00;101891.59;5090925;28;20028;-67
2023/08/22 02:10:28;;;;;;;23.08;18.30;;;;;;;18.51;100.00;101893.56;5081812;28;20024;-69
2023/08/22 02:12:53;;;;;;;23.95;18.20;;;;;;;18.49;100.00;101891.09;5072190;28;20086;-68
2023/08/22 02:15:20;;;;;;;25.65;18.88;;;;;;;18.43;100.00;101891.59;5074235;28;20077;-69
2023/08/22 02:17:46;;;;;;;23.45;18.52;;;;;;;18.40;100.00;101893.09;5071130;28;20033;-69
2023/08/22 02:20:12;;;;;;;24.73;18.75;;;;;;;18.36;100.00;101892.97;5071182;28;20108;-69
2023/08/22 02:22:41;;;;;;;23.17;18.23;;;;;;;18.34;100.00;101886.84;5078936;28;20032;-69
2023/08/22 02:25:08;;;;;;;24.42;18.77;;;;;;;18.31;100.00;101890.31;5070610;28;20492;-68
2023/08/22 02:27:33;;;;;;;22.33;17.98;;;;;;;18.28;100.00;101878.97;5070569;28;20107;-68
2023/08/22 02:29:58;;;;;;;24.48;18.33;;;;;;;18.29;100.00;101892.63;5084744;28;20111;-68
2023/08/22 02:32:24;;;;;;;24.30;18.45;;;;;;;18.26;100.00;101893.31;5075170;28;20021;-68
2023/08/22 02:34:49;;;;;;;23.88;17.88;;;;;;;18.26;100.00;101889.66;5070719;28;20061;-68
2023/08/22 02:37:15;;;;;;;22.50;17.73;;;;;;;18.22;100.00;101886.72;5072668;28;20397;-68
2023/08/22 02:39:40;;;;;;;23.65;18.13;;;;;;;18.21;100.00;101885.06;5079577;28;20426;-68
2023/08/22 02:42:05;;;;;;;23.88;18.20;;;;;;;18.20;100.00;101889.03;5070752;28;20040;-68
2023/08/22 02:44:31;;;;;;;23.02;18.30;;;;;;;18.18;100.00;101883.75;5079038;28;20025;-68
2023/08/22 02:46:56;;;;;;;25.20;18.70;;;;;;;18.16;100.00;101885.25;5071301;28;20048;-67
2023/08/22 02:49:21;;;;;;;22.73;18.13;;;;;;;18.12;100.00;101881.47;5071924;28;20093;-67
2023/08/22 02:51:47;;;;;;;24.23;18.30;;;;;;;18.15;100.00;101881.63;5078588;28;20511;-67
2023/08/22 02:54:12;;;;;;;24.10;19.13;;;;;;;18.14;100.00;101885.56;5075759;28;20491;-67
2023/08/22 02:56:37;;;;;;;23.60;18.40;;;;;;;18.14;100.00;101885.56;5074211;28;20116;-67
2023/08/22 02:59:03;;;;;;;25.48;19.33;;;;;;;18.12;100.00;101890.72;5088355;28;20360;-67
2023/08/22 03:01:28;;;;;;;23.05;18.17;;;;;;;18.11;100.00;101889.06;5077237;28;20531;-67
2023/08/22 03:03:54;;;;;;;24.40;18.50;;;;;;;18.06;100.00;101883.63;5077228;28;20016;-67
2023/08/22 03:06:22;;;;;;;23.38;17.60;;;;;;;18.03;100.00;101885.13;5075396;28;20043;-67
2023/08/22 03:08:47;;;;;;;23.67;18.60;;;;;;;18.03;100.00;101878.72;5074998;28;20066;-68
2023/08/22 03:11:12;;;;;;;24.55;17.88;;;;;;;18.00;100.00;101891.38;5091838;28;20024;-68
2023/08/22 03:13:38;;;;;;;23.08;18.42;;;;;;;17.98;100.00;101885.31;5093287;28;20032;-68
2023/08/22 03:16:04;;;;;;;24.40;18.70;;;;;;;17.95;100.00;101891.53;5081647;28;20115;-68
2023/08/22 03:18:30;;;;;;;22.83;19.10;;;;;;;17.90;100.00;101880.50;5073966;28;20036;-68
2023/08/22 03:20:58;;;;;;;25.17;18.48;;;;;;;17.86;100.00;101887.91;5073653;28;20040;-69
2023/08/22 03:23:24;;;;;;;23.27;18.15;;;;;;;17.86;100.00;101882.31;5077475;28;20499;-69
2023/08/22 03:26:00;;;;;;;25.13;19.23;;;;;;;17.82;100.00;101882.16;5079551;28;20036;-68
2023/08/22 03:28:26;;;;;;;24.13;18.50;;;;;;;17.78;100.00;101875.56;5079318;28;20097;-69
2023/08/22 03:30:56;;;;;;;22.58;18.10;;;;;;;17.77;100.00;101874.75;5078922;28;20119;-68
2023/08/22 03:33:22;;;;;;;23.38;18.05;;;;;;;17.72;100.00;101872.09;5078443;28;20032;-68
2023/08/22 03:35:47;;;;;;;26.20;18.85;;;;;;;17.72;100.00;101879.69;5089774;28;20467;-68
2023/08/22 03:38:12;;;;;;;25.40;18.85;;;;;;;17.69;100.00;101878.38;5074072;28;20369;-69
2023/08/22 03:40:37;;;;;;;24.58;18.63;;;;;;;17.65;100.00;101876.56;5078144;28;20039;-69
2023/08/22 03:43:03;;;;;;;23.38;18.42;;;;;;;17.61;100.00;101873.63;5083872;28;20097;-69
2023/08/22 03:45:28;;;;;;;26.70;19.15;;;;;;;17.57;100.00;101876.22;5074562;28;20657;-69
2023/08/22 03:47:53;;;;;;;24.23;18.88;;;;;;;17.54;100.00;101868.50;5075317;28;20021;-68
2023/08/22 03:50:19;;;;;;;25.13;18.77;;;;;;;17.49;100.00;101868.66;5079782;28;20040;-69
2023/08/22 03:52:44;;;;;;;23.67;19.17;;;;;;;17.52;100.00;101881.19;5091313;28;20443;-69
2023/08/22 03:55:09;;;;;;;24.27;20.33;;;;;;;17.48;100.00;101881.00;5079325;28;20032;-68
2023/08/22 03:57:35;;;;;;;24.27;19.77;;;;;;;17.42;100.00;101876.72;5093550;28;20027;-68
2023/08/22 04:00:00;;;;;;;25.83;20.48;;;;;;;17.42;100.00;101871.13;5082849;28;20096;-69
2023/08/22 04:02:25;;;;;;;25.23;19.92;;;;;;;17.39;100.00;101872.59;5073158;28;20039;-69
2023/08/22 04:04:51;;;;;;;25.80;19.85;;;;;;;17.36;100.00;101878.03;5079605;28;20031;-69
2023/08/22 04:07:16;;;;;;;28.20;21.20;;;;;;;17.32;100.00;101880.66;5086650;28;20076;-68
2023/08/22 04:09:41;;;;;;;26.33;19.65;;;;;;;17.28;100.00;101880.50;5087501;28;20154;-68
2023/08/22 04:12:07;;;;;;;25.95;19.50;;;;;;;17.23;100.00;101880.66;5072870;28;20483;-68
2023/08/22 04:14:32;;;;;;;25.52;20.58;;;;;;;17.20;100.00;101872.91;5072789;28;20103;-68
2023/08/22 04:16:57;;;;;;;25.83;20.40;;;;;;;17.18;100.00;101866.84;5072963;28;20028;-68
2023/08/22 04:19:24;;;;;;;25.20;19.67;;;;;;;17.15;100.00;101870.28;5089434;28;20016;-68
2023/08/22 04:21:50;;;;;;;25.05;19.73;;;;;;;17.12;100.00;101871.75;5080810;28;20039;-68
2023/08/22 04:24:15;;;;;;;25.77;20.00;;;;;;;17.10;100.00;101871.25;5083330;28;20020;-68
2023/08/22 04:26:40;;;;;;;25.63;20.38;;;;;;;17.07;100.00;101871.91;5082921;28;20041;-68
2023/08/22 04:29:06;;;;;;;26.25;20.52;;;;;;;17.04;100.00;101866.13;5072634;28;20047;-69
2023/08/22 04:31:31;;;;;;;26.73;20.75;;;;;;;17.04;100.00;101861.38;5075341;28;20105;-68
2023/08/22 04:33:56;;;;;;;27.38;20.23;;;;;;;17.03;100.00;101872.88;5073428;28;20103;-68
2023/08/22 04:36:22;;;;;;;23.88;19.60;;;;;;;17.02;100.00;101871.22;5071866;28;20059;-68
2023/08/22 04:38:49;;;;;;;25.20;19.60;;;;;;;16.99;100.00;101870.75;5076668;28;20029;-68
2023/08/22 04:41:14;;;;;;;25.77;20.45;;;;;;;16.95;100.00;101875.34;5081475;28;20036;-68
2023/08/22 04:43:40;;;;;;;25.95;20.23;;;;;;;16.93;100.00;101874.81;5079949;28;20459;-69
2023/08/22 04:46:05;;;;;;;27.15;20.25;;;;;;;16.93;100.00;101871.19;5084592;28;20092;-69
2023/08/22 04:48:30;;;;;;;26.65;20.58;;;;;;;16.90;100.00;101872.66;5071971;28;20448;-68
2023/08/22 04:50:56;;;;;;;27.88;20.67;;;;;;;16.89;100.00;101873.81;5079177;28;20043;-68
2023/08/22 04:53:21;;;;;;;26.77;19.30;;;;;;;16.87;100.00;101881.69;5091640;28;20028;-68
2023/08/22 04:55:46;;;;;;;24.67;18.90;;;;;;;16.86;100.00;101880.03;5087017;28;20024;-69
2023/08/22 04:58:12;;;;;;;25.52;19.02;;;;;;;16.89;100.00;101871.00;5075725;28;20028;-67
2023/08/22 05:00:37;;;;;;;26.05;18.40;;;;;;;16.89;100.00;101873.81;5086887;28;20032;-67
2023/08/22 05:03:03;;;;;;;25.17;18.25;;;;;;;16.88;100.00;101869.38;5071723;28;20035;-67
2023/08/22 05:05:28;;;;;;;25.13;18.73;;;;;;;16.88;100.00;101872.16;5073631;28;20024;-66
2023/08/22 05:07:53;;;;;;;25.00;18.08;;;;;;;16.89;100.00;101870.19;5083284;28;20020;-68
2023/08/22 05:10:19;;;;;;;24.58;18.70;;;;;;;16.91;100.00;101876.28;5076342;28;20119;-68
2023/08/22 05:12:44;;;;;;;24.98;19.10;;;;;;;16.90;100.00;101871.81;5085994;28;20020;-68
2023/08/22 05:15:09;;;;;;;25.45;18.73;;;;;;;16.91;100.00;101874.28;5088556;28;20040;-68
2023/08/22 05:17:35;;;;;;;24.10;18.00;;;;;;;16.95;100.00;101871.72;5088975;28;20372;-68
2023/08/22 05:20:00;;;;;;;26.42;18.65;;;;;;;17.00;100.00;101872.38;5078171;28;20479;-67
2023/08/22 05:22:25;;;;;;;26.25;19.65;;;;;;;17.04;100.00;101877.31;5083096;28;20123;-67
2023/08/22 05:24:51;;;;;;;25.35;18.38;;;;;;;17.08;100.00;101884.72;5071468;28;20477;-67
2023/08/22 05:27:17;;;;;;;26.10;19.58;;;;;;;17.13;100.00;101876.22;5071621;28;20103;-68
2023/08/22 05:29:43;;;;;;;25.02;19.50;;;;;;;17.19;100.00;101876.88;5071152;28;20465;-67
2023/08/22 05:32:08;;;;;;;26.42;19.45;;;;;;;17.25;100.00;101877.50;5070784;28;20135;-67
2023/08/22 05:34:33;;;;;;;26.60;18.90;;;;;;;17.30;100.00;101883.78;5071025;28;20043;-67
2023/08/22 05:36:58;;;;;;;26.80;19.77;;;;;;;17.36;100.00;101878.03;5087475;28;20059;-67
2023/08/22 05:39:24;;;;;;;29.95;21.23;;;;;;;17.43;100.00;101872.78;5078195;28;20059;-68
2023/08/22 05:41:49;;;;;;;28.35;20.00;;;;;;;17.47;100.00;101870.97;5084052;28;20410;-67
2023/08/22 05:44:14;;;;;;;26.95;21.00;;;;;;;17.55;100.00;101869.31;5071419;28;20043;-67
2023/08/22 05:46:39;;;;;;;28.02;19.73;;;;;;;17.63;100.00;101876.88;5071060;28;20059;-67
2023/08/22 05:49:05;;;;;;;27.27;19.30;;;;;;;17.72;100.00;101879.69;5086928;28;20476;-67
2023/08/22 05:51:30;;;;;;;27.45;19.85;;;;;;;17.77;100.00;101893.50;5073215;28;20025;-67
2023/08/22 05:53:55;;;;;;;27.90;20.20;;;;;;;17.85;100.00;101889.06;5070631;28;20072;-67
2023/08/22 05:56:21;;;;;;;26.27;20.00;;;;;;;17.91;100.00;101877.38;5074792;28;20036;-67
2023/08/22 05:58:46;;;;;;;26.90;20.65;;;;;;;18.00;100.00;101882.97;5084692;28;20138;-67
2023/08/22 06:01:13;;;;;;;32.35;20.95;;;;;;;18.06;100.00;101884.47;5070787;28;20063;-67
2023/08/22 06:03:38;;;;;;;29.85;19.60;;;;;;;18.15;100.00;101892.00;5071850;28;20054;-67
2023/08/22 06:06:04;;;;;;;32.70;19.45;;;;;;;18.21;100.00;101894.31;5077581;28;20024;-67
2023/08/22 06:08:30;;;;;;;33.58;20.35;;;;;;;18.26;100.00;101896.13;5090780;28;20027;-68
2023/08/22 06:10:55;;;;;;;29.15;19.63;;;;;;;18.31;100.00;101893.13;5088743;28;20036;-67
2023/08/22 06:13:21;;;;;;;30.52;18.88;;;;;;;18.41;100.00;101900.34;5073609;28;20040;-67
2023/08/22 06:15:46;;;;;;;29.45;20.05;;;;;;;18.48;100.00;101900.66;5082087;28;20115;-68
2023/08/22 06:18:11;;;;;;;27.45;17.90;;;;;;;18.49;100.00;101893.91;5077504;28;20514;-66
2023/08/22 06:20:40;;;;;;;28.95;20.17;;;;;;;18.60;100.00;101899.94;5078875;28;20035;-67
2023/08/22 06:23:05;;;;;;;25.50;19.05;;;;;;;18.61;100.00;101890.38;5081617;28;20085;-66
2023/08/22 06:25:32;;;;;;;24.67;18.60;;;;;;;18.66;100.00;101890.19;5075281;28;20107;-67
2023/08/22 06:27:58;;;;;;;26.90;18.65;;;;;;;18.70;100.00;101891.16;5074094;28;20024;-66
2023/08/22 06:30:23;;;;;;;28.05;18.33;;;;;;;18.78;100.00;101897.91;5090692;28;20052;-66
2023/08/22 06:32:48;;;;;;;25.35;17.52;;;;;;;18.87;100.00;101900.66;5087812;28;20093;-66
2023/08/22 06:35:14;;;;;;;25.50;17.38;;;;;;;18.98;100.00;101901.94;5082960;28;20042;-68
2023/08/22 06:37:39;;;;;;;23.75;16.52;;;;;;;19.08;100.00;101895.09;5072612;28;20091;-68
2023/08/22 06:40:05;;;;;;;26.38;17.35;;;;;;;19.16;100.00;101899.88;5081274;28;20032;-69
2023/08/22 06:42:31;;;;;;;25.35;16.58;;;;;;;19.27;100.00;101889.06;5091936;28;20033;-69
2023/08/22 06:44:57;;;;;;;24.45;16.40;;;;;;;19.33;100.00;101898.09;5076263;28;20477;-67
2023/08/22 06:47:22;;;;;;;24.02;17.25;;;;;;;19.41;100.00;101902.81;5074454;28;20032;-67
2023/08/22 06:49:48;;;;;;;24.75;16.23;;;;;;;19.53;99.72;101906.88;5083488;28;20096;-67
2023/08/22 06:52:14;;;;;;;22.77;15.23;;;;;;;19.66;98.09;101917.00;5072952;28;20575;-67
2023/08/22 06:54:39;;;;;;;20.92;15.10;;;;;;;19.78;94.91;101916.25;5091698;28;20035;-67
2023/08/22 06:57:05;;;;;;;20.63;14.35;;;;;;;19.91;93.56;101903.94;5076008;28;20442;-68
2023/08/22 06:59:30;;;;;;;22.88;14.23;;;;;;;20.07;93.16;101906.91;5084993;28;20024;-69
2023/08/22 07:01:56;;;;;;;22.60;14.45;;;;;;;20.22;90.45;101913.88;5077461;28;20374;-68
2023/08/22 07:04:21;;;;;;;22.42;14.32;;;;;;;20.34;90.15;101920.69;5074489;28;20037;-68
2023/08/22 07:06:47;;;;;;;22.95;14.38;;;;;;;20.42;88.20;101920.59;5091395;28;20089;-69
2023/08/22 07:09:12;;;;;;;20.83;14.07;;;;;;;20.50;88.23;101920.84;5078065;28;20040;-69
2023/08/22 07:11:37;;;;;;;20.65;13.60;;;;;;;20.54;86.92;101921.78;5074530;28;20036;-69
2023/08/22 07:14:03;;;;;;;20.95;13.82;;;;;;;20.58;86.27;101923.53;5082646;28;20118;-69
2023/08/22 07:16:28;;;;;;;22.63;13.75;;;;;;;20.59;86.48;101924.38;5085198;28;20092;-68
2023/08/22 07:18:54;;;;;;;21.05;13.68;;;;;;;20.58;84.71;101928.34;5074135;28;20037;-68
2023/08/22 07:21:19;;;;;;;73.15;21.42;;;;;;;20.57;85.55;101930.34;5074300;28;20025;-71
2023/08/22 07:23:44;;;;;;;47.80;17.58;;;;;;;20.53;83.96;101937.84;5075110;28;20024;-72
2023/08/22 07:26:09;;;;;;;34.97;15.23;;;;;;;20.52;82.90;101926.94;5075320;28;20028;-68
2023/08/22 07:28:35;;;;;;;21.25;12.70;;;;;;;20.61;83.50;101933.25;5079413;28;20119;-68
2023/08/22 07:31:03;;;;;;;22.40;12.98;;;;;;;20.71;83.77;101927.19;5082233;28;20074;-69
2023/08/22 07:33:29;;;;;;;20.98;12.55;;;;;;;20.88;81.07;101940.25;5082571;28;20025;-68
2023/08/22 07:35:55;;;;;;;19.73;11.82;;;;;;;21.11;79.61;101936.94;5074144;28;20365;-68
2023/08/22 07:38:20;;;;;;;20.58;12.15;;;;;;;21.29;79.55;101931.91;5087268;28;20028;-67
2023/08/22 07:40:46;;;;;;;18.13;11.00;;;;;;;21.44;78.41;101930.34;5088360;28;20073;-69
2023/08/22 07:43:11;;;;;;;19.38;10.80;;;;;;;21.51;74.62;101919.31;5076984;28;20047;-68
2023/08/22 07:45:36;;;;;;;18.65;11.10;;;;;;;21.58;74.63;101932.81;5090985;28;20071;-68
2023/08/22 07:48:02;;;;;;;20.95;11.45;;;;;;;21.71;74.92;101933.59;5081330;28;20028;-67
2023/08/22 07:50:28;;;;;;;18.42;11.23;;;;;;;21.80;74.09;101930.66;5077670;28;20035;-68
2023/08/22 07:52:53;;;;;;;20.65;11.85;;;;;;;21.85;73.27;101930.38;5078538;28;20112;-68
2023/08/22 07:55:18;;;;;;;20.70;12.10;;;;;;;21.94;74.61;101936.69;5077879;28;20040;-67
2023/08/22 07:57:44;;;;;;;18.77;11.48;;;;;;;22.06;73.85;101937.81;5079866;28;20529;-67
2023/08/22 08:00:11;;;;;;;21.75;12.10;;;;;;;22.06;72.80;101935.00;5078755;28;20052;-68
2023/08/22 08:02:37;;;;;;;20.40;11.75;;;;;;;22.04;73.20;101935.38;5076097;28;20036;-69
2023/08/22 08:05:03;;;;;;;18.90;11.48;;;;;;;22.03;72.25;101936.53;5080844;28;20115;-70
2023/08/22 08:07:29;;;;;;;20.35;11.23;;;;;;;22.12;73.43;101942.84;5080387;28;20115;-69
2023/08/22 08:09:54;;;;;;;18.95;10.80;;;;;;;22.19;70.34;101930.13;5077929;28;20032;-68
2023/08/22 08:12:19;;;;;;;17.67;10.90;;;;;;;22.31;71.71;101937.69;5080147;28;20035;-69
2023/08/22 08:14:45;;;;;;;32.92;13.55;;;;;;;22.45;71.60;101940.94;5077655;28;20059;-69
2023/08/22 08:17:10;;;;;;;22.30;12.45;;;;;;;22.51;71.71;101947.94;5078732;28;20040;-68
2023/08/22 08:19:35;;;;;;;23.83;12.40;;;;;;;22.56;72.18;101947.69;5077634;28;20029;-69
2023/08/22 08:22:01;;;;;;;24.25;12.70;;;;;;;22.57;72.20;101952.16;5088625;28;20115;-69
2023/08/22 08:24:26;;;;;;;22.05;12.35;;;;;;;22.55;72.72;101948.03;5079723;28;20067;-70
2023/08/22 08:26:52;;;;;;;22.02;12.25;;;;;;;22.61;73.27;101957.88;5076704;28;20025;-70
2023/08/22 08:29:18;;;;;;;27.15;13.20;;;;;;;22.58;72.74;101955.78;5070865;28;20122;-70
2023/08/22 08:31:43;;;;;;;22.15;12.07;;;;;;;22.61;73.57;101948.59;5072074;28;20052;-69
2023/08/22 08:34:08;;;;;;;22.33;12.73;;;;;;;22.63;72.76;101951.88;5071284;28;20078;-70
2023/08/22 08:36:34;;;;;;;21.77;12.90;;;;;;;22.59;73.38;101949.75;5071860;28;20024;-71
2023/08/22 08:38:59;;;;;;;21.10;13.23;;;;;;;22.52;73.75;101952.41;5071714;28;20036;-70
2023/08/22 08:41:26;;;;;;;21.55;13.32;;;;;;;22.56;74.06;101958.97;5071392;28;20032;-70
2023/08/22 08:43:51;;;;;;;26.00;14.40;;;;;;;22.60;74.38;101956.25;5071333;28;20028;-70
2023/08/22 08:46:17;;;;;;;24.90;13.57;;;;;;;22.69;74.70;101951.25;5069961;28;20020;-69
2023/08/22 08:48:44;;;;;;;25.25;13.90;;;;;;;22.77;74.26;101949.41;5069534;28;20024;-70
2023/08/22 08:51:10;;;;;;;26.90;14.07;;;;;;;22.85;75.02;101954.06;5070267;28;20060;-71
2023/08/22 08:53:36;;;;;;;21.67;13.57;;;;;;;22.90;74.25;101955.78;5087887;28;20028;-71
2023/08/22 08:56:02;;;;;;;21.55;13.38;;;;;;;23.03;74.30;101948.03;5085300;28;20407;-71
2023/08/22 08:58:28;;;;;;;23.45;13.57;;;;;;;23.02;73.18;101950.03;5071138;28;20075;-70
2023/08/22 09:00:54;;;;;;;22.48;13.15;;;;;;;22.93;72.28;101949.41;5070849;28;20048;-73
2023/08/22 09:03:19;;;;;;;22.73;13.63;;;;;;;22.92;72.21;101963.88;5070845;28;20639;-73
2023/08/22 09:05:45;;;;;;;21.05;14.15;;;;;;;22.80;72.29;101968.44;5076105;28;20102;-72
2023/08/22 09:08:20;;;;;;;21.27;14.45;;;;;;;22.84;73.79;101960.88;5081107;28;20060;-71
2023/08/22 09:10:53;;;;;;;22.55;14.60;;;;;;;22.78;73.98;101955.88;5076203;28;20033;-71
2023/08/22 09:13:28;;;;;;;22.60;14.38;;;;;;;22.73;73.61;101952.13;5080848;28;20062;-71
2023/08/22 09:15:58;;;;;;;22.92;13.88;;;;;;;22.72;73.89;101944.03;5087424;28;20071;-73
2023/08/22 09:18:24;;;;;;;24.50;14.90;;;;;;;22.69;74.19;101950.41;5086732;28;20020;-72
2023/08/22 09:20:49;;;;;;;22.08;14.20;;;;;;;22.64;74.73;101957.13;5084477;28;20034;-72
2023/08/22 09:23:28;;;;;;;22.30;14.93;;;;;;;22.67;75.33;101958.44;5074313;28;20427;-72
2023/08/22 09:25:55;;;;;;;21.20;14.18;;;;;;;22.69;75.26;101961.69;5072230;28;20036;-71
2023/08/22 09:28:20;;;;;;;23.30;14.38;;;;;;;22.81;75.47;101958.78;5077152;28;20055;-71
2023/08/22 09:30:50;;;;;;;21.85;14.13;;;;;;;22.93;74.32;101954.25;5075416;28;20056;-72
2023/08/22 09:33:16;;;;;;;22.52;14.65;;;;;;;23.02;73.70;101960.50;5086554;28;20032;-71
2023/08/22 09:35:42;;;;;;;22.83;14.45;;;;;;;23.17;72.54;101947.56;5086025;28;20138;-72
2023/08/22 09:38:09;;;;;;;22.35;14.70;;;;;;;23.30;71.43;101956.78;5078852;28;20074;-71
2023/08/22 09:40:36;;;;;;;21.98;14.73;;;;;;;23.44;71.77;101956.28;5081379;28;20107;-74
2023/08/22 09:43:02;;;;;;;22.50;15.05;;;;;;;23.68;71.51;101956.00;5079428;28;20024;-74
2023/08/22 09:45:31;;;;;;;24.05;15.52;;;;;;;23.58;70.88;101956.59;5090009;28;20431;-71
2023/08/22 09:47:59;;;;;;;23.13;15.48;;;;;;;23.59;70.53;101957.44;5090546;28;20097;-73
2023/08/22 09:50:27;;;;;;;24.83;15.65;;;;;;;23.61;70.42;101952.22;5090037;28;20487;-71
2023/08/22 09:52:55;;;;;;;21.98;15.65;;;;;;;23.63;69.92;101959.13;5089057;28;20168;-71
2023/08/22 09:55:20;;;;;;;23.40;15.50;;;;;;;23.60;69.81;101959.06;5088904;28;20036;-70
2023/08/22 09:57:47;;;;;;;22.63;16.05;;;;;;;23.63;70.31;101963.97;5089944;28;20035;-71
2023/08/22 10:00:13;;;;;;;23.55;15.73;;;;;;;23.62;70.58;101951.03;5090258;28;20039;-71
2023/08/22 10:02:39;;;;;;;22.80;15.13;;;;;;;23.55;70.43;101956.50;5090215;28;20050;-69
2023/08/22 10:05:05;;;;;;;23.23;14.55;;;;;;;23.41;69.87;101963.50;5090281;28;20039;-69
2023/08/22 10:07:31;;;;;;;24.25;15.20;;;;;;;23.36;70.97;101960.94;5090278;28;20032;-69
2023/08/22 10:09:56;;;;;;;21.95;14.50;;;;;;;23.51;71.02;101950.78;5090264;28;20039;-70
2023/08/22 10:12:23;;;;;;;23.13;14.48;;;;;;;23.71;70.56;101954.44;5090083;28;20547;-69
2023/08/22 10:14:52;;;;;;;20.70;13.40;;;;;;;23.95;69.70;101961.03;5089968;28;20028;-69
2023/08/22 10:17:18;;;;;;;22.75;13.60;;;;;;;24.04;67.21;101961.63;5090269;28;20028;-70
2023/08/22 10:19:44;;;;;;;21.75;13.02;;;;;;;24.07;66.72;101951.59;5089844;28;20039;-69
2023/08/22 10:22:13;;;;;;;22.27;13.73;;;;;;;24.12;66.91;101957.75;5090236;28;20032;-69
2023/08/22 10:24:40;;;;;;;21.83;13.38;;;;;;;24.16;65.88;101960.66;5089748;28;20089;-70
2023/08/22 10:27:11;;;;;;;22.55;12.40;;;;;;;24.19;65.07;101948.63;5089750;28;20043;-71
2023/08/22 10:30:06;;;;;;;19.60;12.10;;;;;;;24.22;65.49;101949.88;5089964;28;20032;-71
2023/08/22 10:32:31;;;;;;;19.02;11.52;;;;;;;24.39;64.14;101949.38;5088067;28;20040;-70
2023/08/22 10:35:00;;;;;;;19.90;11.55;;;;;;;24.51;63.75;101953.22;5089810;28;20028;-70
2023/08/22 10:37:27;;;;;;;17.95;11.02;;;;;;;24.61;62.04;101950.59;5089651;28;20020;-70
2023/08/22 10:39:57;;;;;;;19.23;10.82;;;;;;;24.75;61.53;101944.38;5089990;28;20024;-71
2023/08/22 10:42:24;;;;;;;18.60;10.93;;;;;;;24.85;60.00;101942.97;5088386;28;20367;-70
2023/08/22 10:44:56;;;;;;;22.45;10.88;;;;;;;25.03;60.01;101926.25;5089256;28;20021;-70
2023/08/22 10:47:32;;;;;;;17.38;10.18;;;;;;;25.33;60.15;101933.16;5089607;28;20096;-70
2023/08/22 10:50:00;;;;;;;18.20;10.52;;;;;;;25.36;57.34;101923.91;5077366;28;20028;-69
2023/08/22 10:52:35;;;;;;;14.55;9.70;;;;;;;25.29;54.58;101944.44;5069757;28;20024;-69
2023/08/22 10:55:10;;;;;;;17.42;10.13;;;;;;;25.36;56.91;101938.88;5068384;28;20048;-69
2023/08/22 10:57:37;;;;;;;16.17;9.70;;;;;;;25.45;56.67;101935.81;5069112;28;20064;-69
2023/08/22 11:02:37;;;;;;;16.55;9.57;;;;;;;25.42;56.83;101941.41;5069379;28;20040;-69